sensor_id;sensor_type;location;lat;lon;timestamp;pressure;altitude;pressure_sealevel;temperature;humidity
59690;BME280;45557;50.298;18.930;2022-11-23T00:02:38;97167.02;;;2.07;76.65
59690;BME280;45557;50.298;18.930;2022-11-23T00:09:39;97170.44;;;2.01;77.01
59690;BME280;45557;50.298;18.930;2022-11-23T00:16:24;97165.80;;;1.92;77.15
59690;BME280;45557;50.298;18.930;2022-11-23T15:26:35;97223.56;;;1.22;81.07
59690;BME280;45557;50.298;18.930;2022-11-23T15:32:40;97228.66;;;1.33;80.38
59690;BME280;45557;50.298;18.930;2022-11-23T15:38:43;97221.94;;;1.45;80.38
59690;BME280;45557;50.298;18.930;2022-11-23T15:52:10;97224.48;;;1.77;79.77
59690;BME280;45557;50.298;18.930;2022-11-23T15:57:54;97228.73;;;1.81;79.06
59690;BME280;45557;50.298;18.930;2022-11-23T16:03:51;97233.86;;;1.84;79.39
59690;BME280;45557;50.298;18.930;2022-11-23T16:10:36;97231.25;;;2.02;79.08
59690;BME280;45557;50.298;18.930;2022-11-23T16:16:40;97238.90;;;2.17;78.82
59690;BME280;45557;50.298;18.930;2022-11-23T16:23:10;97243.70;;;2.14;78.31
59690;BME280;45557;50.298;18.930;2022-11-23T16:30:21;97240.30;;;2.19;78.52
59690;BME280;45557;50.298;18.930;2022-11-23T16:36:52;97246.09;;;2.23;77.82
59690;BME280;45557;50.298;18.930;2022-11-23T16:43:34;97253.94;;;2.10;78.26
59690;BME280;45557;50.298;18.930;2022-11-23T16:49:23;97256.48;;;2.05;78.58
59690;BME280;45557;50.298;18.930;2022-11-23T16:54:46;97255.20;;;2.01;78.68
59690;BME280;45557;50.298;18.930;2022-11-23T17:00:28;97249.73;;;2.04;78.36
59690;BME280;45557;50.298;18.930;2022-11-23T17:13:03;97256.91;;;2.01;78.23
59690;BME280;45557;50.298;18.930;2022-11-23T17:19:43;97253.67;;;1.95;78.05
59690;BME280;45557;50.298;18.930;2022-11-23T17:25:08;97252.80;;;1.90;78.27
59690;BME280;45557;50.298;18.930;2022-11-23T17:30:35;97263.48;;;1.90;78.56
59690;BME280;45557;50.298;18.930;2022-11-23T17:35:57;97265.48;;;1.92;78.38
59690;BME280;45557;50.298;18.930;2022-11-23T17:41:27;97265.54;;;1.93;78.25
59690;BME280;45557;50.298;18.930;2022-11-23T17:48:27;97255.27;;;1.99;78.37
59690;BME280;45557;50.298;18.930;2022-11-23T17:54:41;97255.79;;;2.01;78.43
59690;BME280;45557;50.298;18.930;2022-11-23T18:00:44;97258.46;;;2.01;77.71
59690;BME280;45557;50.298;18.930;2022-11-23T18:06:30;97264.98;;;1.93;77.94
59690;BME280;45557;50.298;18.930;2022-11-23T18:12:25;97267.48;;;1.84;77.93
59690;BME280;45557;50.298;18.930;2022-11-23T18:18:58;97268.33;;;1.63;78.23
59690;BME280;45557;50.298;18.930;2022-11-23T18:25:55;97273.44;;;1.48;78.60
59690;BME280;45557;50.298;18.930;2022-11-23T18:32:01;97278.98;;;1.51;79.34
59690;BME280;45557;50.298;18.930;2022-11-23T18:38:23;97276.95;;;1.60;79.51
59690;BME280;45557;50.298;18.930;2022-11-23T18:44:48;97271.80;;;1.60;78.92
59690;BME280;45557;50.298;18.930;2022-11-23T18:51:10;97276.30;;;1.60;79.09
59690;BME280;45557;50.298;18.930;2022-11-23T18:57:43;97277.78;;;1.62;79.09
59690;BME280;45557;50.298;18.930;2022-11-23T19:04:25;97278.39;;;1.59;79.35
59690;BME280;45557;50.298;18.930;2022-11-23T19:11:43;97279.71;;;1.61;79.01
59690;BME280;45557;50.298;18.930;2022-11-23T19:18:51;97267.41;;;1.63;78.84
59690;BME280;45557;50.298;18.930;2022-11-23T19:26:30;97268.00;;;1.50;79.08
59690;BME280;45557;50.298;18.930;2022-11-23T19:33:28;97267.85;;;1.50;79.46
59690;BME280;45557;50.298;18.930;2022-11-23T19:40:33;97264.90;;;1.66;79.33
59690;BME280;45557;50.298;18.930;2022-11-23T19:47:00;97268.77;;;1.76;79.25
59690;BME280;45557;50.298;18.930;2022-11-23T19:53:25;97271.23;;;1.73;79.10
59690;BME280;45557;50.298;18.930;2022-11-23T20:00:40;97273.67;;;1.73;78.83
59690;BME280;45557;50.298;18.930;2022-11-23T20:07:45;97276.23;;;1.67;79.01
59690;BME280;45557;50.298;18.930;2022-11-23T20:14:27;97288.39;;;1.77;79.70
59690;BME280;45557;50.298;18.930;2022-11-23T20:20:51;97288.23;;;1.87;79.15
59690;BME280;45557;50.298;18.930;2022-11-23T20:32:55;97297.33;;;1.89;78.99
59690;BME280;45557;50.298;18.930;2022-11-23T20:39:22;97287.13;;;1.96;78.75
59690;BME280;45557;50.298;18.930;2022-11-23T20:44:54;97301.27;;;1.94;78.88
59690;BME280;45557;50.298;18.930;2022-11-23T20:50:41;97301.96;;;1.95;78.91
59690;BME280;45557;50.298;18.930;2022-11-23T20:56:45;97302.27;;;1.90;78.40
59690;BME280;45557;50.298;18.930;2022-11-23T21:02:31;97305.11;;;1.92;78.73
59690;BME280;45557;50.298;18.930;2022-11-23T21:08:05;97301.00;;;1.91;78.84
59690;BME280;45557;50.298;18.930;2022-11-23T21:14:21;97305.85;;;1.95;79.14
59690;BME280;45557;50.298;18.930;2022-11-23T21:20:21;97309.09;;;1.99;79.09
59690;BME280;45557;50.298;18.930;2022-11-23T21:26:15;97316.27;;;1.98;78.28
59690;BME280;45557;50.298;18.930;2022-11-23T21:32:33;97327.33;;;1.85;78.58
59690;BME280;45557;50.298;18.930;2022-11-23T21:38:33;97333.75;;;1.76;78.92
59690;BME280;45557;50.298;18.930;2022-11-23T21:51:19;97337.70;;;1.86;79.24
59690;BME280;45557;50.298;18.930;2022-11-23T22:37:15;97343.48;;;2.86;77.10
59690;BME280;45557;50.298;18.930;2022-11-23T22:44:47;97337.79;;;2.68;76.33
59690;BME280;45557;50.298;18.930;2022-11-23T22:51:42;97334.84;;;2.34;77.04
59690;BME280;45557;50.298;18.930;2022-11-23T22:58:51;97337.08;;;2.14;77.35
59690;BME280;45557;50.298;18.930;2022-11-23T23:04:55;97332.60;;;2.00;77.55
59690;BME280;45557;50.298;18.930;2022-11-23T23:11:06;97334.45;;;1.82;78.08
59690;BME280;45557;50.298;18.930;2022-11-23T23:16:57;97339.16;;;1.80;78.66
59690;BME280;45557;50.298;18.930;2022-11-23T23:23:05;97346.35;;;1.87;78.36
59690;BME280;45557;50.298;18.930;2022-11-23T23:29:13;97341.60;;;1.83;78.19
59690;BME280;45557;50.298;18.930;2022-11-23T23:34:51;97343.59;;;1.72;78.32
59690;BME280;45557;50.298;18.930;2022-11-23T23:40:25;97341.91;;;1.62;78.50
59690;BME280;45557;50.298;18.930;2022-11-23T23:46:11;97342.42;;;1.57;79.08
59690;BME280;45557;50.298;18.930;2022-11-23T23:52:35;97333.07;;;1.65;79.23
59690;BME280;45557;50.298;18.930;2022-11-23T23:59:03;97336.06;;;1.66;79.14
